Hauptseite
METAR-TAF:

METAR-TAF

Flughäfen :

London-Heathrow, England

Flughafen London Heathrow

Breite: 51-29N, Länge: 000-27W, Höhe: 24 m

Beobachtung

Neuester Wetterbericht von vor 21 Minuten, um 11:50 UTC
Wind 16 kt aus West, variierte zwischen Südwest und West/Nordwest
Temperatur 23°C
Luftfeuchtigkeit 53%
Luftdruck 1011 hPa
Sichtweite 10 km oder mehr
Durchbrochene Bewölkung in der Höhe von 2500 ft

METAR: EGLL 221150Z AUTO 26016KT 230V290 9999 BKN025 23/13 Q1011

Zeit: 13:11 (12:11 UTC)

Prognose

Neuester Wetterbericht von vor 1 Stunde und 17 Minuten, um 10:54 UTC
Gültige Prognose vom 22 um 12 UTC bis 23 um 18 UTC
Wind 12 kt aus West
Sichtweite 10 km oder mehr
Aufgelockert bewölkt in der Höhe von 3000 ft
Wahrscheinlichkeit 30% :
Zeitweise
vom 22 um 12 UTC bis 22 um 16 UTC
Wind 15 kt aus West, Böen bis zu 25 kt

TAF: EGLL 221054Z 2212/2318 26012KT 9999 SCT030 PROB30 TEMPO 2212/2216 27015G25KT

Wetterbeobachtungen und Prognosen von mehr als 4000 Flughäfen (METAR und TAF Bericht).

Die verfügbaren Stationen werden durch gelbe und rote Markierungen auf der Karte dargestellt.

Führen Sie die Maus auf sie, um den Namen der Station zu sehen.

Darauf klicken, um die Beobachtung von Wetterbeobachtungen und Prognosen zu sehen.

Um die Karte zu ändern : klicken Sie auf den grünen Tasten mit einem schwarzen Kreuz Zum Vergrößern, auf den grünen Button mit einem Gedankenstrich zu verkleinern, oder auf die grünen Pfeile für benachbarte Karten.


METAR-TAF: